createdAt,value
2022-12-12T00:00:25.273Z,-2.60
2022-12-12T00:02:52.097Z,-2.60
2022-12-12T00:05:19.757Z,-2.70
2022-12-12T00:07:46.543Z,-2.70
2022-12-12T00:10:13.486Z,-2.60
2022-12-12T00:12:40.997Z,-2.60
2022-12-12T00:15:08.718Z,-2.60
2022-12-12T00:17:35.565Z,-2.60
2022-12-12T00:20:02.462Z,-2.60
2022-12-12T00:22:29.520Z,-2.60
2022-12-12T00:24:57.653Z,-2.60
2022-12-12T00:27:24.428Z,-2.70
2022-12-12T00:29:55.297Z,-2.70
2022-12-12T00:32:22.165Z,-2.60
2022-12-12T00:34:48.941Z,-2.60
2022-12-12T00:37:16.030Z,-2.60
2022-12-12T00:39:43.293Z,-2.60
2022-12-12T00:42:10.128Z,-2.60
2022-12-12T00:44:37.087Z,-2.60
2022-12-12T00:47:04.350Z,-2.60
2022-12-12T00:49:31.349Z,-2.60
2022-12-12T00:51:59.341Z,-2.60
2022-12-12T00:54:26.253Z,-2.60
2022-12-12T00:56:53.332Z,-2.60
2022-12-12T00:59:20.220Z,-2.70
2022-12-12T01:01:47.508Z,-2.70
2022-12-12T01:04:14.633Z,-2.60
2022-12-12T01:06:41.751Z,-2.60
2022-12-12T01:09:09.580Z,-2.60
2022-12-12T01:11:36.476Z,-2.60
2022-12-12T01:14:05.092Z,-2.70
2022-12-12T01:16:32.041Z,-2.70
2022-12-12T01:18:59.694Z,-2.70
2022-12-12T01:21:26.570Z,-2.70
2022-12-12T01:23:53.482Z,-2.80
2022-12-12T01:26:23.473Z,-2.70
2022-12-12T01:28:51.540Z,-2.80
2022-12-12T01:31:19.544Z,-2.70
2022-12-12T01:33:46.718Z,-2.70
2022-12-12T01:36:20.178Z,-2.70
2022-12-12T01:38:48.480Z,-2.70
2022-12-12T01:41:16.639Z,-2.70
2022-12-12T01:43:43.858Z,-2.70
2022-12-12T01:46:34.567Z,-2.80
2022-12-12T01:49:19.229Z,-2.80
2022-12-12T01:51:47.886Z,-2.80
2022-12-12T01:54:22.827Z,-2.70
2022-12-12T01:56:52.160Z,-2.70
2022-12-12T01:59:22.552Z,-2.70
2022-12-12T02:01:52.384Z,-2.70
2022-12-12T02:04:21.461Z,-2.70
2022-12-12T02:06:50.762Z,-2.60
2022-12-12T02:09:20.129Z,-2.60
2022-12-12T02:11:53.008Z,-2.50
2022-12-12T02:14:27.437Z,-2.60
2022-12-12T02:17:15.893Z,-2.50
2022-12-12T02:20:00.874Z,-2.50
2022-12-12T02:22:49.316Z,-2.50
2022-12-12T02:25:19.335Z,-2.50
2022-12-12T02:28:13.715Z,-2.50
2022-12-12T02:30:45.162Z,-2.50
2022-12-12T02:33:24.744Z,-2.50
2022-12-12T02:36:18.930Z,-2.50
2022-12-12T02:38:45.738Z,-2.50
2022-12-12T02:41:24.108Z,-2.40
2022-12-12T02:44:08.377Z,-2.50
2022-12-12T02:46:51.241Z,-2.40
2022-12-12T02:49:25.338Z,-2.40
2022-12-12T02:51:54.664Z,-2.40
2022-12-12T02:54:23.271Z,-2.40
2022-12-12T02:56:52.274Z,-2.40
2022-12-12T02:59:21.940Z,-2.40
2022-12-12T03:01:56.828Z,-2.40
2022-12-12T03:05:00.217Z,-2.40
2022-12-12T03:07:48.311Z,-2.30
2022-12-12T03:10:36.968Z,-2.30
2022-12-12T03:13:58.442Z,-2.30
2022-12-12T03:16:43.779Z,-2.30
2022-12-12T03:19:15.609Z,-2.30
2022-12-12T03:21:48.107Z,-2.30
2022-12-12T03:24:38.493Z,-2.20
2022-12-12T03:27:10.995Z,-2.20
2022-12-12T03:29:46.506Z,-2.20
2022-12-12T03:32:23.423Z,-2.20
2022-12-12T03:35:06.922Z,-2.20
2022-12-12T03:37:37.291Z,-2.20
2022-12-12T03:40:12.207Z,-2.10
2022-12-12T03:42:57.674Z,-2.10
2022-12-12T03:45:35.136Z,-2.10
2022-12-12T03:48:23.225Z,-2.10
2022-12-12T03:50:55.199Z,-2.10
2022-12-12T03:53:40.528Z,-2.00
2022-12-12T03:56:22.763Z,-2.00
2022-12-12T03:58:55.899Z,-1.90
2022-12-12T04:01:35.200Z,-1.90
2022-12-12T04:04:16.548Z,-1.90
2022-12-12T04:06:54.351Z,-1.90
2022-12-12T04:09:47.689Z,-1.80
2022-12-12T04:13:00.062Z,-1.80
2022-12-12T04:15:48.374Z,-1.80
2022-12-12T04:18:37.076Z,-1.80
2022-12-12T04:21:49.873Z,-1.80
2022-12-12T04:24:47.148Z,-1.80
2022-12-12T04:27:24.420Z,-1.80
2022-12-12T04:30:02.449Z,-1.70
2022-12-12T04:32:40.603Z,-1.70
2022-12-12T04:35:15.984Z,-1.70
2022-12-12T04:37:54.012Z,-1.60
2022-12-12T04:40:26.399Z,-1.60
2022-12-12T04:42:59.043Z,-1.60
2022-12-12T04:45:31.107Z,-1.60
2022-12-12T04:48:00.983Z,-1.60
2022-12-12T04:50:30.955Z,-1.60
2022-12-12T04:53:02.033Z,-1.60
2022-12-12T04:55:40.000Z,-1.50
2022-12-12T04:58:07.669Z,-1.50
2022-12-12T05:00:58.793Z,-1.50
2022-12-12T05:03:43.927Z,-1.50
2022-12-12T05:06:14.446Z,-1.50
2022-12-12T05:08:48.774Z,-1.40
2022-12-12T05:11:18.488Z,-1.50
2022-12-12T05:13:45.695Z,-1.40
2022-12-12T05:16:35.444Z,-1.40
2022-12-12T05:19:02.354Z,-1.40
2022-12-12T05:21:29.165Z,-1.40
2022-12-12T05:23:57.247Z,-1.40
2022-12-12T05:26:25.328Z,-1.30
2022-12-12T05:28:52.604Z,-1.30
2022-12-12T05:31:19.459Z,-1.30
2022-12-12T05:33:46.418Z,-1.30
2022-12-12T05:36:14.325Z,-1.30
2022-12-12T05:38:41.578Z,-1.30
2022-12-12T05:41:09.170Z,-1.20
2022-12-12T05:43:36.284Z,-1.20
2022-12-12T05:46:03.867Z,-1.20
2022-12-12T05:48:31.021Z,-1.20
2022-12-12T05:50:58.064Z,-1.20
2022-12-12T05:53:26.025Z,-1.10
2022-12-12T05:55:53.050Z,-1.20
2022-12-12T05:58:20.554Z,-1.10
2022-12-12T06:00:49.052Z,-1.10
2022-12-12T06:03:16.628Z,-1.10
2022-12-12T06:05:43.988Z,-1.10
2022-12-12T06:08:11.097Z,-1.00
2022-12-12T06:10:38.117Z,-1.00
2022-12-12T06:13:05.186Z,-1.00
2022-12-12T06:15:32.663Z,-1.00
2022-12-12T06:17:59.540Z,-1.00
2022-12-12T06:20:26.437Z,-1.00
2022-12-12T06:22:54.089Z,-1.00
2022-12-12T06:25:21.468Z,-0.90
2022-12-12T06:27:48.561Z,-0.90
2022-12-12T06:30:15.585Z,-0.90
2022-12-12T06:32:42.799Z,-0.90
2022-12-12T06:35:10.274Z,-0.90
2022-12-12T06:37:38.735Z,-0.90
2022-12-12T06:40:06.129Z,-0.80
2022-12-12T06:42:32.926Z,-0.80
2022-12-12T06:44:59.801Z,-0.70
2022-12-12T06:47:26.692Z,-0.80
2022-12-12T06:49:53.512Z,-0.80
2022-12-12T06:52:20.330Z,-0.70
2022-12-12T06:54:47.430Z,-0.70
2022-12-12T06:57:14.500Z,-0.70
2022-12-12T06:59:41.476Z,-0.70
2022-12-12T07:02:11.325Z,-0.70
2022-12-12T07:04:38.190Z,-0.70
2022-12-12T07:07:05.027Z,-0.60
2022-12-12T07:09:31.997Z,-0.70
2022-12-12T07:11:58.990Z,-0.60
2022-12-12T07:14:25.882Z,-0.60
2022-12-12T07:16:53.281Z,-0.60
2022-12-12T07:19:20.266Z,-0.60
2022-12-12T07:21:47.325Z,-0.60
2022-12-12T07:24:15.781Z,-0.60
2022-12-12T07:26:42.893Z,-0.50
2022-12-12T07:29:10.546Z,-0.50
2022-12-12T07:31:37.595Z,-0.50
2022-12-12T07:34:04.540Z,-0.40
2022-12-12T07:36:31.447Z,-0.40
2022-12-12T07:38:58.365Z,-0.40
2022-12-12T07:41:25.406Z,-0.40
2022-12-12T07:43:52.634Z,-0.40
2022-12-12T07:46:23.178Z,-0.40
2022-12-12T07:48:51.264Z,-0.40
2022-12-12T07:51:19.226Z,-0.30
2022-12-12T07:53:46.877Z,-0.30
2022-12-12T07:56:15.729Z,-0.30
2022-12-12T07:58:43.548Z,-0.30
2022-12-12T08:01:14.706Z,-0.30
2022-12-12T08:03:43.417Z,-0.20
2022-12-12T08:06:10.718Z,-0.20
2022-12-12T08:08:39.279Z,-0.30
2022-12-12T08:11:11.651Z,-0.30
2022-12-12T08:13:39.918Z,-0.30
2022-12-12T08:16:12.029Z,-0.30
2022-12-12T08:18:38.805Z,-0.30
2022-12-12T08:21:13.717Z,-0.30
2022-12-12T08:23:41.635Z,-0.30
2022-12-12T08:26:15.252Z,-0.30
2022-12-12T08:28:44.879Z,-0.30
2022-12-12T08:31:14.058Z,-0.30
2022-12-12T08:33:41.623Z,-0.20
2022-12-12T08:36:17.268Z,-0.20
2022-12-12T08:38:44.397Z,-0.20
2022-12-12T08:41:12.225Z,-0.20
2022-12-12T08:43:40.877Z,-0.20
2022-12-12T08:46:15.313Z,-0.20
2022-12-12T08:48:44.582Z,-0.20
2022-12-12T08:51:11.382Z,-0.20
2022-12-12T08:53:38.212Z,-0.20
2022-12-12T08:56:05.726Z,-0.20
2022-12-12T08:58:32.551Z,-0.10
2022-12-12T09:00:59.473Z,-0.10
2022-12-12T09:03:29.559Z,-0.10
2022-12-12T09:05:56.911Z,-0.10
2022-12-12T09:08:23.797Z,0.00
2022-12-12T09:10:51.104Z,0.00
2022-12-12T09:13:18.625Z,0.00
2022-12-12T09:15:45.406Z,0.10
2022-12-12T09:18:12.355Z,0.10
2022-12-12T09:20:39.149Z,0.20
2022-12-12T09:23:05.930Z,0.20
2022-12-12T09:25:32.820Z,0.20
2022-12-12T09:27:59.661Z,0.20
2022-12-12T09:30:26.398Z,0.20
2022-12-12T09:32:53.230Z,0.30
2022-12-12T09:35:20.024Z,0.30
2022-12-12T09:37:46.804Z,0.30
2022-12-12T09:40:20.416Z,0.40
2022-12-12T09:42:50.772Z,0.40
2022-12-12T09:45:19.559Z,0.40
2022-12-12T09:47:50.818Z,0.50
2022-12-12T09:50:33.193Z,0.50
2022-12-12T09:53:11.561Z,0.50
2022-12-12T09:56:03.514Z,0.50
2022-12-12T09:58:43.480Z,0.50
2022-12-12T10:01:14.500Z,0.50
2022-12-12T10:03:56.109Z,0.60
2022-12-12T10:06:38.863Z,0.60
2022-12-12T10:09:43.454Z,0.60
2022-12-12T10:12:15.449Z,0.60
2022-12-12T10:14:52.923Z,0.50
2022-12-12T10:17:34.212Z,0.60
2022-12-12T10:20:07.921Z,0.60
2022-12-12T10:22:45.604Z,0.60
2022-12-12T10:25:42.850Z,0.70
2022-12-12T10:28:13.542Z,0.70
2022-12-12T10:31:14.503Z,0.70
2022-12-12T10:34:21.161Z,0.70
2022-12-12T10:36:57.192Z,0.70
2022-12-12T10:39:45.381Z,0.70
2022-12-12T10:42:38.561Z,0.70
2022-12-12T10:45:17.665Z,0.70
2022-12-12T10:47:45.435Z,0.80
2022-12-12T10:50:21.209Z,0.70
2022-12-12T10:52:47.974Z,0.80
2022-12-12T10:55:25.304Z,0.80
2022-12-12T10:58:04.343Z,0.80
2022-12-12T11:00:40.135Z,0.80
2022-12-12T11:03:26.558Z,0.80
2022-12-12T11:05:55.407Z,0.80
2022-12-12T11:08:25.330Z,0.80
2022-12-12T11:11:00.342Z,0.80
2022-12-12T11:13:28.056Z,0.80
2022-12-12T11:15:57.740Z,0.90
2022-12-12T11:18:25.569Z,0.80
2022-12-12T11:21:07.653Z,0.80
2022-12-12T11:23:39.154Z,0.80
2022-12-12T11:26:16.484Z,0.80
2022-12-12T11:28:46.620Z,0.90
2022-12-12T11:31:19.935Z,0.90
2022-12-12T11:33:54.496Z,0.90
2022-12-12T11:36:41.716Z,0.80
2022-12-12T11:39:23.511Z,0.80
2022-12-12T11:42:02.346Z,0.90
2022-12-12T11:44:35.718Z,0.80
2022-12-12T11:47:27.173Z,0.80
2022-12-12T11:50:00.085Z,0.80
2022-12-12T11:52:32.700Z,0.80
2022-12-12T11:55:01.147Z,0.80
2022-12-12T11:58:12.093Z,0.80
2022-12-12T12:01:19.387Z,0.80
2022-12-12T12:03:57.630Z,0.80
2022-12-12T12:06:27.349Z,0.90
2022-12-12T12:09:09.552Z,0.90
2022-12-12T12:11:48.545Z,0.90
2022-12-12T12:14:42.336Z,0.90
2022-12-12T12:17:23.175Z,0.80
2022-12-12T12:20:10.046Z,0.80
2022-12-12T12:23:09.260Z,0.80
2022-12-12T12:26:01.001Z,0.80
2022-12-12T12:28:54.790Z,0.80
2022-12-12T12:31:40.685Z,2.00
2022-12-12T12:34:27.674Z,0.80
2022-12-12T12:37:12.593Z,0.80
2022-12-12T12:40:17.087Z,0.80
2022-12-12T12:43:21.927Z,0.80
2022-12-12T12:45:57.845Z,0.80
2022-12-12T12:48:35.350Z,0.80
2022-12-12T12:51:02.034Z,0.80
2022-12-12T12:53:40.369Z,0.80
2022-12-12T12:56:27.854Z,0.80
2022-12-12T12:58:59.261Z,0.80
2022-12-12T13:01:29.544Z,0.80
2022-12-12T13:04:05.823Z,0.80
2022-12-12T13:06:41.685Z,0.80
2022-12-12T13:09:26.430Z,1.50
2022-12-12T13:12:16.109Z,0.80
2022-12-12T13:14:50.904Z,0.80
2022-12-12T13:17:25.639Z,0.80
2022-12-12T13:19:56.315Z,0.80
2022-12-12T13:22:51.062Z,0.80
2022-12-12T13:25:43.099Z,0.80
2022-12-12T13:28:18.248Z,0.80
2022-12-12T13:31:12.919Z,0.80
2022-12-12T13:34:03.016Z,0.80
2022-12-12T13:36:35.193Z,0.80
2022-12-12T13:39:04.138Z,0.80
2022-12-12T13:41:53.641Z,0.80
2022-12-12T13:44:34.487Z,0.80
2022-12-12T13:47:02.367Z,1.00
2022-12-12T13:49:40.857Z,0.80
2022-12-12T13:52:42.294Z,0.80
2022-12-12T13:55:11.777Z,0.80
2022-12-12T13:57:57.302Z,0.80
2022-12-12T14:00:25.954Z,0.80
2022-12-12T14:03:11.744Z,0.80
2022-12-12T14:05:53.123Z,0.80
2022-12-12T14:08:35.799Z,0.80
2022-12-12T14:11:06.335Z,0.80
2022-12-12T14:13:45.772Z,0.80
2022-12-12T14:16:26.414Z,0.80
2022-12-12T14:19:48.163Z,0.80
2022-12-12T14:22:50.131Z,0.80
2022-12-12T14:25:20.914Z,0.80
2022-12-12T14:27:50.545Z,0.80
2022-12-12T14:30:19.323Z,0.90
2022-12-12T14:32:58.795Z,0.90
2022-12-12T14:35:37.952Z,0.80
2022-12-12T14:38:27.978Z,0.90
2022-12-12T14:41:01.789Z,0.90
2022-12-12T14:43:35.174Z,0.90
2022-12-12T14:46:02.813Z,0.80
2022-12-12T14:48:37.005Z,0.90
2022-12-12T14:51:15.894Z,0.90
2022-12-12T14:53:49.433Z,0.90
2022-12-12T14:56:29.698Z,0.90
2022-12-12T14:59:12.919Z,0.90
2022-12-12T15:01:56.258Z,0.90
2022-12-12T15:04:32.782Z,0.90
2022-12-12T15:07:04.793Z,0.90
2022-12-12T15:09:39.348Z,0.90
2022-12-12T15:12:16.330Z,0.90
2022-12-12T15:14:49.904Z,0.90
2022-12-12T15:17:28.776Z,0.90
2022-12-12T15:20:05.970Z,0.90
2022-12-12T15:22:39.218Z,0.90
2022-12-12T15:25:21.719Z,0.90
2022-12-12T15:27:55.556Z,0.90
2022-12-12T15:30:32.414Z,0.80
2022-12-12T15:33:01.298Z,0.90
2022-12-12T15:35:28.264Z,0.80
2022-12-12T15:37:59.367Z,0.90
2022-12-12T15:40:33.316Z,0.80
2022-12-12T15:43:12.309Z,0.80
2022-12-12T15:45:46.622Z,0.80
2022-12-12T15:48:16.154Z,0.80
2022-12-12T15:50:43.251Z,0.80
2022-12-12T15:53:29.316Z,0.80
2022-12-12T15:56:29.730Z,0.80
2022-12-12T15:59:17.253Z,0.80
2022-12-12T16:01:44.329Z,0.80
2022-12-12T16:04:11.439Z,0.80
2022-12-12T16:06:42.821Z,0.80
2022-12-12T16:09:20.464Z,0.80
2022-12-12T16:11:57.144Z,0.80
2022-12-12T16:14:41.783Z,0.70
2022-12-12T16:17:24.162Z,0.70
2022-12-12T16:19:53.833Z,0.80
2022-12-12T16:22:32.713Z,0.80
2022-12-12T16:25:21.662Z,0.70
2022-12-12T16:27:57.756Z,0.80
2022-12-12T16:30:26.705Z,0.90
2022-12-12T16:32:53.763Z,0.70
2022-12-12T16:35:23.475Z,0.70
2022-12-12T16:37:53.390Z,0.80
2022-12-12T16:40:21.327Z,0.70
2022-12-12T16:43:09.497Z,0.70
2022-12-12T16:45:39.223Z,0.70
2022-12-12T16:48:18.972Z,0.70
2022-12-12T16:50:47.095Z,0.70
2022-12-12T16:53:14.334Z,0.70
2022-12-12T16:55:44.557Z,0.70
2022-12-12T16:58:11.362Z,0.70
2022-12-12T17:00:40.008Z,0.70
2022-12-12T17:03:07.254Z,0.70
2022-12-12T17:05:35.288Z,0.70
2022-12-12T17:08:02.785Z,0.70
2022-12-12T17:10:31.561Z,0.70
2022-12-12T17:12:58.588Z,0.70
2022-12-12T17:15:30.803Z,0.60
2022-12-12T17:17:58.388Z,0.60
2022-12-12T17:20:26.347Z,0.60
2022-12-12T17:22:53.391Z,0.60
2022-12-12T17:25:23.060Z,0.60
2022-12-12T17:27:51.686Z,0.60
2022-12-12T17:30:19.603Z,0.60
2022-12-12T17:35:31.101Z,0.60
2022-12-12T17:37:59.416Z,0.60
2022-12-12T17:40:26.684Z,0.60
2022-12-12T17:42:53.577Z,0.60
2022-12-12T17:45:20.529Z,0.60
2022-12-12T17:47:47.605Z,0.50
2022-12-12T17:50:14.999Z,0.60
2022-12-12T17:52:42.250Z,0.50
2022-12-12T17:55:55.154Z,0.50
2022-12-12T17:57:56.499Z,0.50
2022-12-12T18:00:23.771Z,0.60
2022-12-12T18:02:50.540Z,0.60
2022-12-12T18:05:19.648Z,0.50
2022-12-12T18:07:46.702Z,0.50
2022-12-12T18:10:13.917Z,0.50
2022-12-12T18:12:45.604Z,0.50
2022-12-12T18:15:17.018Z,0.50
2022-12-12T18:17:43.780Z,0.50
2022-12-12T18:20:11.089Z,0.50
2022-12-12T18:22:38.103Z,0.50
2022-12-12T18:25:05.717Z,0.50
2022-12-12T18:27:32.749Z,0.50
2022-12-12T18:29:59.683Z,0.50
2022-12-12T18:32:29.116Z,0.50
2022-12-12T18:34:56.018Z,0.50
2022-12-12T18:37:22.931Z,0.50
2022-12-12T18:39:49.686Z,0.50
2022-12-12T18:42:17.158Z,0.50
2022-12-12T18:44:44.003Z,0.50
2022-12-12T18:47:10.821Z,0.50
2022-12-12T18:49:37.680Z,0.50
2022-12-12T18:52:04.701Z,0.50
2022-12-12T18:54:31.564Z,0.50
2022-12-12T18:56:58.562Z,0.50
2022-12-12T18:59:25.333Z,0.50
2022-12-12T19:01:52.937Z,0.50
2022-12-12T19:04:23.447Z,0.50
2022-12-12T19:06:50.888Z,0.50
2022-12-12T19:09:19.261Z,0.50
2022-12-12T19:11:47.393Z,0.40
2022-12-12T19:14:16.064Z,0.40
2022-12-12T19:16:43.640Z,0.40
2022-12-12T19:19:12.070Z,0.40
2022-12-12T19:21:39.679Z,0.40
2022-12-12T19:24:12.406Z,0.40
2022-12-12T19:26:42.171Z,0.40
2022-12-12T19:29:15.470Z,0.40
2022-12-12T19:31:43.126Z,0.40
2022-12-12T19:34:12.535Z,0.40
2022-12-12T19:36:39.322Z,0.40
2022-12-12T19:39:07.846Z,0.40
2022-12-12T19:41:35.838Z,0.40
2022-12-12T19:44:04.209Z,0.40
2022-12-12T19:46:32.897Z,0.40
2022-12-12T19:49:02.103Z,0.40
2022-12-12T19:51:32.558Z,0.40
2022-12-12T19:54:00.435Z,0.40
2022-12-12T19:56:30.477Z,0.40
2022-12-12T19:58:58.257Z,0.50
2022-12-12T20:01:30.421Z,0.40
2022-12-12T20:04:18.893Z,0.40
2022-12-12T20:06:47.078Z,0.40
2022-12-12T20:09:17.111Z,0.40
2022-12-12T20:11:45.444Z,0.40
2022-12-12T20:14:14.732Z,0.40
2022-12-12T20:16:42.287Z,0.40
2022-12-12T20:19:09.775Z,0.40
2022-12-12T20:24:24.321Z,0.40
2022-12-12T20:26:52.426Z,0.40
2022-12-12T20:29:19.317Z,0.50
2022-12-12T20:31:46.192Z,0.40
2022-12-12T20:34:15.692Z,0.60
2022-12-12T20:36:44.441Z,0.50
2022-12-12T20:39:19.286Z,0.40
2022-12-12T20:41:46.276Z,0.50
2022-12-12T20:44:14.104Z,0.40
2022-12-12T20:46:43.111Z,0.40
2022-12-12T20:49:14.697Z,0.40
2022-12-12T20:51:58.593Z,0.60
2022-12-12T20:54:29.589Z,0.40
2022-12-12T20:56:58.326Z,0.30
2022-12-12T20:59:25.931Z,0.30
2022-12-12T21:01:53.180Z,0.20
2022-12-12T21:04:20.214Z,0.20
2022-12-12T21:06:51.433Z,1.20
2022-12-12T21:09:25.080Z,0.20
2022-12-12T21:11:57.932Z,0.20
2022-12-12T21:14:27.011Z,0.20
2022-12-12T21:16:54.431Z,0.10
2022-12-12T21:19:22.761Z,0.10
2022-12-12T21:21:50.510Z,0.10
2022-12-12T21:24:17.984Z,0.00
2022-12-12T21:26:45.947Z,0.10
2022-12-12T21:29:13.416Z,0.10
2022-12-12T21:31:48.260Z,0.10
2022-12-12T21:34:17.645Z,0.10
2022-12-12T21:36:44.659Z,0.00
2022-12-12T21:39:12.383Z,0.50
2022-12-12T21:41:41.842Z,0.00
2022-12-12T21:44:09.623Z,0.00
2022-12-12T21:46:37.218Z,-0.10
2022-12-12T21:49:22.821Z,0.00
2022-12-12T21:51:49.698Z,0.00
2022-12-12T21:54:16.738Z,0.20
2022-12-12T21:56:44.279Z,0.00
2022-12-12T21:59:13.234Z,0.00
2022-12-12T22:01:41.812Z,0.10
2022-12-12T22:04:10.023Z,0.10
2022-12-12T22:06:37.033Z,0.10
2022-12-12T22:09:07.936Z,0.10
2022-12-12T22:11:41.567Z,0.10
2022-12-12T22:14:20.982Z,0.10
2022-12-12T22:16:48.149Z,0.20
2022-12-12T22:19:15.826Z,0.10
2022-12-12T22:21:47.732Z,0.10
2022-12-12T22:24:16.547Z,0.10
2022-12-12T22:26:46.184Z,0.00
2022-12-12T22:29:15.809Z,0.00
2022-12-12T22:31:43.725Z,0.00
2022-12-12T22:34:14.310Z,0.00
2022-12-12T22:36:41.643Z,-0.10
2022-12-12T22:39:19.126Z,-0.10
2022-12-12T22:41:48.068Z,-0.10
2022-12-12T22:44:17.711Z,-0.10
2022-12-12T22:46:47.769Z,-0.10
2022-12-12T22:49:21.029Z,-0.10
2022-12-12T22:51:48.737Z,-0.10
2022-12-12T22:54:16.196Z,0.00
2022-12-12T22:56:45.393Z,0.00
2022-12-12T22:59:13.676Z,0.00
2022-12-12T23:01:41.563Z,0.00
2022-12-12T23:04:12.662Z,-0.10
2022-12-12T23:06:39.794Z,0.00
2022-12-12T23:09:14.327Z,0.00
2022-12-12T23:11:41.604Z,0.00
2022-12-12T23:14:11.592Z,0.00
2022-12-12T23:16:38.474Z,0.00
2022-12-12T23:19:06.208Z,-0.10
2022-12-12T23:21:34.616Z,0.00
2022-12-12T23:24:01.836Z,0.00
2022-12-12T23:26:31.164Z,0.00
2022-12-12T23:28:59.873Z,0.00
2022-12-12T23:31:29.834Z,0.00
2022-12-12T23:34:03.473Z,0.00
2022-12-12T23:36:31.347Z,0.10
2022-12-12T23:39:04.382Z,0.10
2022-12-12T23:41:31.198Z,0.00
2022-12-12T23:43:58.122Z,0.10
2022-12-12T23:46:28.918Z,0.00
2022-12-12T23:48:57.855Z,0.00
2022-12-12T23:51:25.923Z,0.00
2022-12-12T23:53:54.694Z,0.00
2022-12-12T23:56:21.605Z,0.00
2022-12-12T23:58:48.429Z,-0.10
